sensor_id;sensor_type;location;lat;lon;timestamp;P1;durP1;ratioP1;P2;durP2;ratioP2
30593;SDS011;33199;47.590;8.300;2023-03-19T00:00:19;3.28;;;2.97;;
30593;SDS011;33199;47.590;8.300;2023-03-19T00:02:44;3.30;;;3.00;;
30593;SDS011;33199;47.590;8.300;2023-03-19T00:05:15;2.90;;;2.58;;
30593;SDS011;33199;47.590;8.300;2023-03-19T00:07:41;2.97;;;2.65;;
30593;SDS011;33199;47.590;8.300;2023-03-19T00:10:07;2.95;;;2.75;;
30593;SDS011;33199;47.590;8.300;2023-03-19T00:12:33;3.03;;;2.72;;
30593;SDS011;33199;47.590;8.300;2023-03-19T00:14:59;3.78;;;2.58;;
30593;SDS011;33199;47.590;8.300;2023-03-19T00:17:24;3.60;;;2.58;;
30593;SDS011;33199;47.590;8.300;2023-03-19T00:19:50;2.75;;;2.53;;
30593;SDS011;33199;47.590;8.300;2023-03-19T00:22:16;3.10;;;2.90;;
30593;SDS011;33199;47.590;8.300;2023-03-19T00:24:41;3.17;;;2.90;;
30593;SDS011;33199;47.590;8.300;2023-03-19T00:27:07;3.75;;;2.83;;
30593;SDS011;33199;47.590;8.300;2023-03-19T00:29:33;4.47;;;2.97;;
30593;SDS011;33199;47.590;8.300;2023-03-19T00:31:58;4.30;;;2.72;;
30593;SDS011;33199;47.590;8.300;2023-03-19T00:34:24;3.00;;;2.80;;
30593;SDS011;33199;47.590;8.300;2023-03-19T00:36:49;3.50;;;2.88;;
30593;SDS011;33199;47.590;8.300;2023-03-19T00:39:15;3.67;;;2.90;;
30593;SDS011;33199;47.590;8.300;2023-03-19T00:41:41;2.63;;;2.50;;
30593;SDS011;33199;47.590;8.300;2023-03-19T00:44:14;3.03;;;2.75;;
30593;SDS011;33199;47.590;8.300;2023-03-19T00:46:41;3.45;;;2.60;;
30593;SDS011;33199;47.590;8.300;2023-03-19T00:49:06;2.80;;;2.60;;
30593;SDS011;33199;47.590;8.300;2023-03-19T00:51:32;4.45;;;2.70;;
30593;SDS011;33199;47.590;8.300;2023-03-19T00:53:57;3.78;;;2.85;;
30593;SDS011;33199;47.590;8.300;2023-03-19T00:56:23;2.65;;;2.45;;
30593;SDS011;33199;47.590;8.300;2023-03-19T00:58:48;3.20;;;2.90;;
30593;SDS011;33199;47.590;8.300;2023-03-19T01:01:15;2.65;;;2.45;;
30593;SDS011;33199;47.590;8.300;2023-03-19T01:03:42;2.80;;;2.58;;
30593;SDS011;33199;47.590;8.300;2023-03-19T01:06:09;2.97;;;2.67;;
30593;SDS011;33199;47.590;8.300;2023-03-19T01:08:35;3.67;;;2.67;;
30593;SDS011;33199;47.590;8.300;2023-03-19T01:11:05;3.03;;;2.78;;
30593;SDS011;33199;47.590;8.300;2023-03-19T01:13:36;2.88;;;2.65;;
30593;SDS011;33199;47.590;8.300;2023-03-19T01:16:02;3.05;;;2.85;;
30593;SDS011;33199;47.590;8.300;2023-03-19T01:18:27;3.28;;;2.60;;
30593;SDS011;33199;47.590;8.300;2023-03-19T01:20:53;2.75;;;2.55;;
30593;SDS011;33199;47.590;8.300;2023-03-19T01:23:19;2.78;;;2.58;;
30593;SDS011;33199;47.590;8.300;2023-03-19T01:25:45;2.70;;;2.50;;
30593;SDS011;33199;47.590;8.300;2023-03-19T01:28:11;3.03;;;2.42;;
30593;SDS011;33199;47.590;8.300;2023-03-19T01:30:37;2.47;;;2.28;;
30593;SDS011;33199;47.590;8.300;2023-03-19T01:33:04;3.22;;;2.40;;
30593;SDS011;33199;47.590;8.300;2023-03-19T01:35:31;4.63;;;2.60;;
30593;SDS011;33199;47.590;8.300;2023-03-19T01:37:56;3.03;;;2.83;;
30593;SDS011;33199;47.590;8.300;2023-03-19T01:40:22;3.05;;;2.58;;
30593;SDS011;33199;47.590;8.300;2023-03-19T01:42:55;2.80;;;2.60;;
30593;SDS011;33199;47.590;8.300;2023-03-19T01:45:37;3.03;;;2.72;;
30593;SDS011;33199;47.590;8.300;2023-03-19T01:48:04;3.40;;;2.88;;
30593;SDS011;33199;47.590;8.300;2023-03-19T01:50:39;2.92;;;2.40;;
30593;SDS011;33199;47.590;8.300;2023-03-19T01:53:07;2.60;;;2.40;;
30593;SDS011;33199;47.590;8.300;2023-03-19T01:58:01;3.20;;;2.90;;
30593;SDS011;33199;47.590;8.300;2023-03-19T02:00:28;2.88;;;2.63;;
30593;SDS011;33199;47.590;8.300;2023-03-19T02:02:55;2.40;;;2.20;;
30593;SDS011;33199;47.590;8.300;2023-03-19T02:05:24;2.63;;;2.42;;
30593;SDS011;33199;47.590;8.300;2023-03-19T02:07:51;2.92;;;2.63;;
30593;SDS011;33199;47.590;8.300;2023-03-19T02:10:20;2.90;;;2.65;;
30593;SDS011;33199;47.590;8.300;2023-03-19T02:12:46;2.40;;;2.20;;
30593;SDS011;33199;47.590;8.300;2023-03-19T02:15:12;2.97;;;2.47;;
30593;SDS011;33199;47.590;8.300;2023-03-19T02:17:38;2.70;;;2.40;;
30593;SDS011;33199;47.590;8.300;2023-03-19T02:23:03;2.60;;;2.40;;
30593;SDS011;33199;47.590;8.300;2023-03-19T02:28:13;2.53;;;2.33;;
30593;SDS011;33199;47.590;8.300;2023-03-19T02:30:41;2.58;;;2.38;;
30593;SDS011;33199;47.590;8.300;2023-03-19T02:33:14;3.05;;;2.47;;
30593;SDS011;33199;47.590;8.300;2023-03-19T02:35:42;2.30;;;2.10;;
30593;SDS011;33199;47.590;8.300;2023-03-19T02:40:38;2.53;;;2.33;;
30593;SDS011;33199;47.590;8.300;2023-03-19T02:43:09;2.60;;;2.10;;
30593;SDS011;33199;47.590;8.300;2023-03-19T02:45:35;3.22;;;2.70;;
30593;SDS011;33199;47.590;8.300;2023-03-19T02:48:00;3.17;;;2.47;;
30593;SDS011;33199;47.590;8.300;2023-03-19T02:50:26;2.60;;;2.40;;
30593;SDS011;33199;47.590;8.300;2023-03-19T02:52:52;2.88;;;2.20;;
30593;SDS011;33199;47.590;8.300;2023-03-19T02:55:18;2.10;;;1.88;;
30593;SDS011;33199;47.590;8.300;2023-03-19T02:57:45;2.58;;;2.38;;
30593;SDS011;33199;47.590;8.300;2023-03-19T03:00:11;2.58;;;2.38;;
30593;SDS011;33199;47.590;8.300;2023-03-19T03:02:37;3.50;;;2.40;;
30593;SDS011;33199;47.590;8.300;2023-03-19T03:05:03;2.97;;;2.60;;
30593;SDS011;33199;47.590;8.300;2023-03-19T03:07:30;2.67;;;2.47;;
30593;SDS011;33199;47.590;8.300;2023-03-19T03:09:57;2.58;;;2.38;;
30593;SDS011;33199;47.590;8.300;2023-03-19T03:12:23;2.65;;;2.45;;
30593;SDS011;33199;47.590;8.300;2023-03-19T03:14:48;2.45;;;2.25;;
30593;SDS011;33199;47.590;8.300;2023-03-19T03:17:15;2.65;;;2.45;;
30593;SDS011;33199;47.590;8.300;2023-03-19T03:19:41;2.65;;;2.45;;
30593;SDS011;33199;47.590;8.300;2023-03-19T03:22:06;2.80;;;2.55;;
30593;SDS011;33199;47.590;8.300;2023-03-19T03:24:32;2.30;;;2.10;;
30593;SDS011;33199;47.590;8.300;2023-03-19T03:26:58;3.17;;;2.50;;
30593;SDS011;33199;47.590;8.300;2023-03-19T03:29:24;3.50;;;2.65;;
30593;SDS011;33199;47.590;8.300;2023-03-19T03:31:50;3.45;;;2.47;;
30593;SDS011;33199;47.590;8.300;2023-03-19T03:34:16;2.33;;;2.22;;
30593;SDS011;33199;47.590;8.300;2023-03-19T03:36:42;2.42;;;2.22;;
30593;SDS011;33199;47.590;8.300;2023-03-19T03:39:08;2.85;;;2.65;;
30593;SDS011;33199;47.590;8.300;2023-03-19T03:41:34;2.55;;;2.35;;
30593;SDS011;33199;47.590;8.300;2023-03-19T03:43:59;2.88;;;2.08;;
30593;SDS011;33199;47.590;8.300;2023-03-19T03:46:25;2.92;;;2.65;;
30593;SDS011;33199;47.590;8.300;2023-03-19T03:48:50;2.95;;;2.58;;
30593;SDS011;33199;47.590;8.300;2023-03-19T03:51:19;2.83;;;2.20;;
30593;SDS011;33199;47.590;8.300;2023-03-19T03:53:46;2.72;;;2.53;;
30593;SDS011;33199;47.590;8.300;2023-03-19T03:56:11;2.60;;;2.38;;
30593;SDS011;33199;47.590;8.300;2023-03-19T03:58:37;2.83;;;2.33;;
30593;SDS011;33199;47.590;8.300;2023-03-19T04:01:03;2.88;;;2.47;;
30593;SDS011;33199;47.590;8.300;2023-03-19T04:03:30;3.45;;;2.05;;
30593;SDS011;33199;47.590;8.300;2023-03-19T04:05:55;2.95;;;2.40;;
30593;SDS011;33199;47.590;8.300;2023-03-19T04:08:21;2.47;;;2.28;;
30593;SDS011;33199;47.590;8.300;2023-03-19T04:10:47;3.55;;;2.55;;
30593;SDS011;33199;47.590;8.300;2023-03-19T04:13:13;2.65;;;2.45;;
30593;SDS011;33199;47.590;8.300;2023-03-19T04:15:40;5.45;;;2.38;;
30593;SDS011;33199;47.590;8.300;2023-03-19T04:18:06;2.42;;;2.13;;
30593;SDS011;33199;47.590;8.300;2023-03-19T04:20:32;2.60;;;2.30;;
30593;SDS011;33199;47.590;8.300;2023-03-19T04:22:58;2.47;;;2.28;;
30593;SDS011;33199;47.590;8.300;2023-03-19T04:25:24;3.10;;;2.75;;
30593;SDS011;33199;47.590;8.300;2023-03-19T04:27:50;3.00;;;2.17;;
30593;SDS011;33199;47.590;8.300;2023-03-19T04:30:16;2.30;;;2.20;;
30593;SDS011;33199;47.590;8.300;2023-03-19T04:32:42;2.10;;;2.00;;
30593;SDS011;33199;47.590;8.300;2023-03-19T04:35:08;2.35;;;2.25;;
30593;SDS011;33199;47.590;8.300;2023-03-19T04:37:34;3.75;;;2.58;;
30593;SDS011;33199;47.590;8.300;2023-03-19T04:39:59;2.35;;;2.15;;
30593;SDS011;33199;47.590;8.300;2023-03-19T04:42:25;5.07;;;2.30;;
30593;SDS011;33199;47.590;8.300;2023-03-19T04:44:51;3.90;;;2.90;;
30593;SDS011;33199;47.590;8.300;2023-03-19T04:47:17;2.33;;;2.13;;
30593;SDS011;33199;47.590;8.300;2023-03-19T04:49:43;4.32;;;2.65;;
30593;SDS011;33199;47.590;8.300;2023-03-19T04:52:08;2.30;;;2.10;;
30593;SDS011;33199;47.590;8.300;2023-03-19T04:54:34;2.58;;;2.28;;
30593;SDS011;33199;47.590;8.300;2023-03-19T04:57:00;2.40;;;2.20;;
30593;SDS011;33199;47.590;8.300;2023-03-19T04:59:26;2.70;;;2.50;;
30593;SDS011;33199;47.590;8.300;2023-03-19T05:01:51;2.55;;;2.30;;
30593;SDS011;33199;47.590;8.300;2023-03-19T05:04:17;3.08;;;2.42;;
30593;SDS011;33199;47.590;8.300;2023-03-19T05:06:43;3.00;;;2.45;;
30593;SDS011;33199;47.590;8.300;2023-03-19T05:09:08;2.88;;;2.67;;
30593;SDS011;33199;47.590;8.300;2023-03-19T05:11:35;3.72;;;2.38;;
30593;SDS011;33199;47.590;8.300;2023-03-19T05:14:01;2.55;;;2.35;;
30593;SDS011;33199;47.590;8.300;2023-03-19T05:16:26;2.40;;;2.20;;
30593;SDS011;33199;47.590;8.300;2023-03-19T05:18:52;2.15;;;1.95;;
30593;SDS011;33199;47.590;8.300;2023-03-19T05:21:18;3.10;;;2.60;;
30593;SDS011;33199;47.590;8.300;2023-03-19T05:23:43;2.50;;;2.30;;
30593;SDS011;33199;47.590;8.300;2023-03-19T05:26:09;2.55;;;2.22;;
30593;SDS011;33199;47.590;8.300;2023-03-19T05:28:35;3.25;;;2.58;;
30593;SDS011;33199;47.590;8.300;2023-03-19T05:31:02;2.25;;;2.05;;
30593;SDS011;33199;47.590;8.300;2023-03-19T05:33:28;2.65;;;2.15;;
30593;SDS011;33199;47.590;8.300;2023-03-19T05:35:54;2.40;;;2.20;;
30593;SDS011;33199;47.590;8.300;2023-03-19T05:38:21;2.55;;;2.35;;
30593;SDS011;33199;47.590;8.300;2023-03-19T05:40:46;2.63;;;2.42;;
30593;SDS011;33199;47.590;8.300;2023-03-19T05:43:12;3.70;;;2.53;;
30593;SDS011;33199;47.590;8.300;2023-03-19T05:45:38;2.60;;;2.10;;
30593;SDS011;33199;47.590;8.300;2023-03-19T05:48:04;2.55;;;2.35;;
30593;SDS011;33199;47.590;8.300;2023-03-19T05:50:30;2.78;;;2.40;;
30593;SDS011;33199;47.590;8.300;2023-03-19T05:52:57;2.55;;;2.35;;
30593;SDS011;33199;47.590;8.300;2023-03-19T05:55:23;3.03;;;2.40;;
30593;SDS011;33199;47.590;8.300;2023-03-19T05:57:49;2.28;;;2.08;;
30593;SDS011;33199;47.590;8.300;2023-03-19T06:00:15;3.70;;;2.42;;
30593;SDS011;33199;47.590;8.300;2023-03-19T06:02:41;2.45;;;2.25;;
30593;SDS011;33199;47.590;8.300;2023-03-19T06:05:08;3.40;;;2.50;;
30593;SDS011;33199;47.590;8.300;2023-03-19T06:07:34;2.38;;;2.10;;
30593;SDS011;33199;47.590;8.300;2023-03-19T06:10:00;3.08;;;1.90;;
30593;SDS011;33199;47.590;8.300;2023-03-19T06:12:26;3.38;;;2.15;;
30593;SDS011;33199;47.590;8.300;2023-03-19T06:14:51;2.40;;;2.20;;
30593;SDS011;33199;47.590;8.300;2023-03-19T06:17:17;3.30;;;2.40;;
30593;SDS011;33199;47.590;8.300;2023-03-19T06:19:43;2.80;;;2.60;;
30593;SDS011;33199;47.590;8.300;2023-03-19T06:22:08;2.78;;;2.53;;
30593;SDS011;33199;47.590;8.300;2023-03-19T06:24:34;2.58;;;2.38;;
30593;SDS011;33199;47.590;8.300;2023-03-19T06:27:01;2.88;;;2.38;;
30593;SDS011;33199;47.590;8.300;2023-03-19T06:29:27;2.33;;;2.13;;
30593;SDS011;33199;47.590;8.300;2023-03-19T06:31:53;3.05;;;2.42;;
30593;SDS011;33199;47.590;8.300;2023-03-19T06:34:18;2.17;;;2.03;;
30593;SDS011;33199;47.590;8.300;2023-03-19T06:36:45;3.67;;;2.10;;
30593;SDS011;33199;47.590;8.300;2023-03-19T06:39:10;2.65;;;2.15;;
30593;SDS011;33199;47.590;8.300;2023-03-19T06:41:36;2.38;;;2.17;;
30593;SDS011;33199;47.590;8.300;2023-03-19T06:44:02;1.85;;;1.70;;
30593;SDS011;33199;47.590;8.300;2023-03-19T06:46:28;2.70;;;2.47;;
30593;SDS011;33199;47.590;8.300;2023-03-19T06:48:54;3.53;;;2.35;;
30593;SDS011;33199;47.590;8.300;2023-03-19T06:51:19;3.22;;;2.17;;
30593;SDS011;33199;47.590;8.300;2023-03-19T06:53:45;2.50;;;2.20;;
30593;SDS011;33199;47.590;8.300;2023-03-19T06:56:11;2.85;;;2.33;;
30593;SDS011;33199;47.590;8.300;2023-03-19T06:58:36;3.13;;;2.42;;
30593;SDS011;33199;47.590;8.300;2023-03-19T07:01:03;3.08;;;2.00;;
30593;SDS011;33199;47.590;8.300;2023-03-19T07:03:28;2.83;;;2.50;;
30593;SDS011;33199;47.590;8.300;2023-03-19T07:05:54;3.08;;;2.10;;
30593;SDS011;33199;47.590;8.300;2023-03-19T07:08:20;2.10;;;1.90;;
30593;SDS011;33199;47.590;8.300;2023-03-19T07:10:45;2.90;;;2.58;;
30593;SDS011;33199;47.590;8.300;2023-03-19T07:13:11;2.80;;;2.40;;
30593;SDS011;33199;47.590;8.300;2023-03-19T07:15:37;2.22;;;2.03;;
30593;SDS011;33199;47.590;8.300;2023-03-19T07:18:02;2.38;;;2.17;;
30593;SDS011;33199;47.590;8.300;2023-03-19T07:20:28;2.70;;;2.50;;
30593;SDS011;33199;47.590;8.300;2023-03-19T07:22:54;2.20;;;2.10;;
30593;SDS011;33199;47.590;8.300;2023-03-19T07:25:20;2.30;;;2.05;;
30593;SDS011;33199;47.590;8.300;2023-03-19T07:27:45;3.20;;;2.40;;
30593;SDS011;33199;47.590;8.300;2023-03-19T07:30:11;2.35;;;2.10;;
30593;SDS011;33199;47.590;8.300;2023-03-19T07:32:38;2.10;;;1.85;;
30593;SDS011;33199;47.590;8.300;2023-03-19T07:35:06;2.20;;;1.95;;
30593;SDS011;33199;47.590;8.300;2023-03-19T07:37:33;2.10;;;2.00;;
30593;SDS011;33199;47.590;8.300;2023-03-19T07:39:59;2.67;;;2.47;;
30593;SDS011;33199;47.590;8.300;2023-03-19T07:42:24;2.15;;;2.05;;
30593;SDS011;33199;47.590;8.300;2023-03-19T07:44:50;2.33;;;2.13;;
30593;SDS011;33199;47.590;8.300;2023-03-19T07:47:15;2.05;;;1.95;;
30593;SDS011;33199;47.590;8.300;2023-03-19T07:49:41;2.58;;;2.00;;
30593;SDS011;33199;47.590;8.300;2023-03-19T07:52:07;2.05;;;1.85;;
30593;SDS011;33199;47.590;8.300;2023-03-19T07:54:33;1.98;;;1.88;;
30593;SDS011;33199;47.590;8.300;2023-03-19T07:56:58;2.17;;;2.08;;
30593;SDS011;33199;47.590;8.300;2023-03-19T07:59:25;2.38;;;2.17;;
30593;SDS011;33199;47.590;8.300;2023-03-19T08:01:51;2.67;;;2.20;;
30593;SDS011;33199;47.590;8.300;2023-03-19T08:04:16;1.90;;;1.80;;
30593;SDS011;33199;47.590;8.300;2023-03-19T08:06:42;2.40;;;2.08;;
30593;SDS011;33199;47.590;8.300;2023-03-19T08:09:07;1.90;;;1.80;;
30593;SDS011;33199;47.590;8.300;2023-03-19T08:11:33;2.20;;;2.10;;
30593;SDS011;33199;47.590;8.300;2023-03-19T08:13:59;2.47;;;2.08;;
30593;SDS011;33199;47.590;8.300;2023-03-19T08:16:25;1.88;;;1.77;;
30593;SDS011;33199;47.590;8.300;2023-03-19T08:18:51;3.67;;;2.60;;
30593;SDS011;33199;47.590;8.300;2023-03-19T08:21:16;2.10;;;1.98;;
30593;SDS011;33199;47.590;8.300;2023-03-19T08:23:42;2.40;;;2.10;;
30593;SDS011;33199;47.590;8.300;2023-03-19T08:26:08;2.15;;;1.98;;
30593;SDS011;33199;47.590;8.300;2023-03-19T08:28:33;2.88;;;2.15;;
30593;SDS011;33199;47.590;8.300;2023-03-19T08:31:09;1.75;;;1.65;;
30593;SDS011;33199;47.590;8.300;2023-03-19T08:33:36;3.20;;;1.73;;
30593;SDS011;33199;47.590;8.300;2023-03-19T08:36:06;2.65;;;2.45;;
30593;SDS011;33199;47.590;8.300;2023-03-19T08:38:36;2.10;;;1.90;;
30593;SDS011;33199;47.590;8.300;2023-03-19T08:41:02;2.05;;;1.95;;
30593;SDS011;33199;47.590;8.300;2023-03-19T08:43:30;2.30;;;1.90;;
30593;SDS011;33199;47.590;8.300;2023-03-19T08:45:57;1.80;;;1.70;;
30593;SDS011;33199;47.590;8.300;2023-03-19T08:48:24;2.90;;;2.70;;
30593;SDS011;33199;47.590;8.300;2023-03-19T08:51:00;2.42;;;2.22;;
30593;SDS011;33199;47.590;8.300;2023-03-19T08:53:27;2.25;;;2.05;;
30593;SDS011;33199;47.590;8.300;2023-03-19T08:55:54;2.78;;;2.10;;
30593;SDS011;33199;47.590;8.300;2023-03-19T08:58:24;2.05;;;1.83;;
30593;SDS011;33199;47.590;8.300;2023-03-19T09:00:51;2.05;;;1.95;;
30593;SDS011;33199;47.590;8.300;2023-03-19T09:03:17;2.00;;;1.90;;
30593;SDS011;33199;47.590;8.300;2023-03-19T09:05:43;2.10;;;2.00;;
30593;SDS011;33199;47.590;8.300;2023-03-19T09:08:09;5.63;;;2.70;;
30593;SDS011;33199;47.590;8.300;2023-03-19T09:10:35;3.55;;;2.85;;
30593;SDS011;33199;47.590;8.300;2023-03-19T09:13:01;5.68;;;3.40;;
30593;SDS011;33199;47.590;8.300;2023-03-19T09:15:27;3.63;;;2.80;;
30593;SDS011;33199;47.590;8.300;2023-03-19T09:17:53;6.68;;;3.10;;
30593;SDS011;33199;47.590;8.300;2023-03-19T09:20:18;3.50;;;2.55;;
30593;SDS011;33199;47.590;8.300;2023-03-19T09:22:44;4.35;;;2.60;;
30593;SDS011;33199;47.590;8.300;2023-03-19T09:25:10;2.90;;;2.38;;
30593;SDS011;33199;47.590;8.300;2023-03-19T09:27:36;4.65;;;2.70;;
30593;SDS011;33199;47.590;8.300;2023-03-19T09:30:02;6.20;;;2.80;;
30593;SDS011;33199;47.590;8.300;2023-03-19T09:32:28;4.35;;;2.13;;
30593;SDS011;33199;47.590;8.300;2023-03-19T09:34:54;3.22;;;2.40;;
30593;SDS011;33199;47.590;8.300;2023-03-19T09:37:19;3.38;;;2.25;;
30593;SDS011;33199;47.590;8.300;2023-03-19T09:39:45;2.85;;;2.63;;
30593;SDS011;33199;47.590;8.300;2023-03-19T09:44:54;2.30;;;2.10;;
30593;SDS011;33199;47.590;8.300;2023-03-19T09:47:27;2.30;;;2.10;;
30593;SDS011;33199;47.590;8.300;2023-03-19T09:49:57;2.80;;;2.45;;
30593;SDS011;33199;47.590;8.300;2023-03-19T09:57:56;3.45;;;2.30;;
30593;SDS011;33199;47.590;8.300;2023-03-19T10:00:31;4.00;;;2.33;;
30593;SDS011;33199;47.590;8.300;2023-03-19T10:05:57;2.30;;;2.10;;
30593;SDS011;33199;47.590;8.300;2023-03-19T10:11:41;3.50;;;2.25;;
30593;SDS011;33199;47.590;8.300;2023-03-19T10:17:00;2.50;;;2.10;;
30593;SDS011;33199;47.590;8.300;2023-03-19T10:19:44;2.15;;;1.90;;
30593;SDS011;33199;47.590;8.300;2023-03-19T10:22:20;2.28;;;1.90;;
30593;SDS011;33199;47.590;8.300;2023-03-19T10:24:52;3.85;;;2.22;;
30593;SDS011;33199;47.590;8.300;2023-03-19T10:27:21;2.15;;;1.95;;
30593;SDS011;33199;47.590;8.300;2023-03-19T10:29:47;2.10;;;1.88;;
30593;SDS011;33199;47.590;8.300;2023-03-19T10:35:17;1.83;;;1.73;;
30593;SDS011;33199;47.590;8.300;2023-03-19T10:37:47;2.95;;;2.03;;
30593;SDS011;33199;47.590;8.300;2023-03-19T10:40:19;5.03;;;2.55;;
30593;SDS011;33199;47.590;8.300;2023-03-19T10:43:06;3.33;;;1.80;;
30593;SDS011;33199;47.590;8.300;2023-03-19T10:45:41;2.20;;;1.80;;
30593;SDS011;33199;47.590;8.300;2023-03-19T10:48:11;2.72;;;2.15;;
30593;SDS011;33199;47.590;8.300;2023-03-19T10:50:51;2.92;;;2.13;;
30593;SDS011;33199;47.590;8.300;2023-03-19T10:53:34;2.90;;;2.20;;
30593;SDS011;33199;47.590;8.300;2023-03-19T10:56:03;1.80;;;1.70;;
30593;SDS011;33199;47.590;8.300;2023-03-19T10:58:41;2.25;;;1.88;;
30593;SDS011;33199;47.590;8.300;2023-03-19T11:01:34;1.73;;;1.63;;
30593;SDS011;33199;47.590;8.300;2023-03-19T11:04:22;2.05;;;1.77;;
30593;SDS011;33199;47.590;8.300;2023-03-19T11:06:50;2.40;;;1.45;;
30593;SDS011;33199;47.590;8.300;2023-03-19T11:09:22;2.00;;;1.80;;
30593;SDS011;33199;47.590;8.300;2023-03-19T11:12:38;2.33;;;2.00;;
30593;SDS011;33199;47.590;8.300;2023-03-19T11:14:58;2.38;;;1.90;;
30593;SDS011;33199;47.590;8.300;2023-03-19T11:22:55;2.47;;;1.60;;
30593;SDS011;33199;47.590;8.300;2023-03-19T11:25:35;1.80;;;1.70;;
30593;SDS011;33199;47.590;8.300;2023-03-19T11:28:02;2.10;;;1.85;;
30593;SDS011;33199;47.590;8.300;2023-03-19T11:38:36;2.75;;;1.73;;
30593;SDS011;33199;47.590;8.300;2023-03-19T11:41:32;1.60;;;1.50;;
30593;SDS011;33199;47.590;8.300;2023-03-19T11:44:03;2.30;;;1.75;;
30593;SDS011;33199;47.590;8.300;2023-03-19T11:46:35;3.20;;;1.80;;
30593;SDS011;33199;47.590;8.300;2023-03-19T11:51:49;1.83;;;1.65;;
30593;SDS011;33199;47.590;8.300;2023-03-19T11:57:27;3.63;;;1.92;;
30593;SDS011;33199;47.590;8.300;2023-03-19T12:12:47;3.33;;;1.73;;
30593;SDS011;33199;47.590;8.300;2023-03-19T12:15:45;2.50;;;1.73;;
30593;SDS011;33199;47.590;8.300;2023-03-19T12:23:55;2.55;;;1.70;;
30593;SDS011;33199;47.590;8.300;2023-03-19T12:26:25;2.10;;;1.50;;
30593;SDS011;33199;47.590;8.300;2023-03-19T12:29:22;2.47;;;1.40;;
30593;SDS011;33199;47.590;8.300;2023-03-19T12:34:37;2.65;;;1.63;;
30593;SDS011;33199;47.590;8.300;2023-03-19T12:37:13;2.22;;;1.80;;
30593;SDS011;33199;47.590;8.300;2023-03-19T12:42:36;1.60;;;1.50;;
30593;SDS011;33199;47.590;8.300;2023-03-19T12:45:07;2.03;;;1.83;;
30593;SDS011;33199;47.590;8.300;2023-03-19T12:47:47;2.30;;;1.67;;
30593;SDS011;33199;47.590;8.300;2023-03-19T12:50:14;2.47;;;1.42;;
30593;SDS011;33199;47.590;8.300;2023-03-19T12:55:30;3.90;;;1.40;;
30593;SDS011;33199;47.590;8.300;2023-03-19T12:58:13;2.35;;;1.50;;
30593;SDS011;33199;47.590;8.300;2023-03-19T13:06:50;3.10;;;2.03;;
30593;SDS011;33199;47.590;8.300;2023-03-19T13:09:27;1.70;;;1.60;;
30593;SDS011;33199;47.590;8.300;2023-03-19T13:11:57;1.83;;;1.70;;
30593;SDS011;33199;47.590;8.300;2023-03-19T13:20:23;1.38;;;1.30;;
30593;SDS011;33199;47.590;8.300;2023-03-19T13:23:03;2.35;;;1.58;;
30593;SDS011;33199;47.590;8.300;2023-03-19T13:25:32;3.88;;;1.80;;
30593;SDS011;33199;47.590;8.300;2023-03-19T13:28:10;2.35;;;1.55;;
30593;SDS011;33199;47.590;8.300;2023-03-19T13:33:22;2.30;;;1.60;;
30593;SDS011;33199;47.590;8.300;2023-03-19T13:35:48;1.50;;;1.35;;
30593;SDS011;33199;47.590;8.300;2023-03-19T13:38:19;1.70;;;1.42;;
30593;SDS011;33199;47.590;8.300;2023-03-19T13:40:55;2.17;;;1.70;;
30593;SDS011;33199;47.590;8.300;2023-03-19T13:48:35;1.80;;;1.70;;
30593;SDS011;33199;47.590;8.300;2023-03-19T13:51:02;1.70;;;1.20;;
30593;SDS011;33199;47.590;8.300;2023-03-19T13:53:53;2.25;;;1.38;;
30593;SDS011;33199;47.590;8.300;2023-03-19T13:59:31;2.22;;;1.30;;
30593;SDS011;33199;47.590;8.300;2023-03-19T14:04:49;3.95;;;1.30;;
30593;SDS011;33199;47.590;8.300;2023-03-19T14:07:49;1.45;;;1.35;;
30593;SDS011;33199;47.590;8.300;2023-03-19T14:12:49;1.40;;;1.30;;
30593;SDS011;33199;47.590;8.300;2023-03-19T14:15:20;1.67;;;1.58;;
30593;SDS011;33199;47.590;8.300;2023-03-19T14:18:00;2.55;;;1.60;;
30593;SDS011;33199;47.590;8.300;2023-03-19T14:20:29;4.05;;;1.70;;
30593;SDS011;33199;47.590;8.300;2023-03-19T14:23:11;1.95;;;1.20;;
30593;SDS011;33199;47.590;8.300;2023-03-19T14:28:32;2.67;;;1.42;;
30593;SDS011;33199;47.590;8.300;2023-03-19T14:31:01;3.25;;;1.73;;
30593;SDS011;33199;47.590;8.300;2023-03-19T14:33:31;1.65;;;1.55;;
30593;SDS011;33199;47.590;8.300;2023-03-19T14:36:13;2.08;;;1.40;;
30593;SDS011;33199;47.590;8.300;2023-03-19T14:38:52;2.40;;;1.55;;
30593;SDS011;33199;47.590;8.300;2023-03-19T14:41:33;1.50;;;1.40;;
30593;SDS011;33199;47.590;8.300;2023-03-19T14:52:27;1.45;;;1.35;;
30593;SDS011;33199;47.590;8.300;2023-03-19T14:57:33;2.05;;;1.30;;
30593;SDS011;33199;47.590;8.300;2023-03-19T14:59:59;4.32;;;1.60;;
30593;SDS011;33199;47.590;8.300;2023-03-19T15:05:02;1.40;;;1.30;;
30593;SDS011;33199;47.590;8.300;2023-03-19T15:07:49;1.77;;;1.35;;
30593;SDS011;33199;47.590;8.300;2023-03-19T15:10:23;4.30;;;1.65;;
30593;SDS011;33199;47.590;8.300;2023-03-19T15:15:53;1.20;;;1.15;;
30593;SDS011;33199;47.590;8.300;2023-03-19T15:18:25;2.08;;;1.40;;
30593;SDS011;33199;47.590;8.300;2023-03-19T15:20:51;2.00;;;1.50;;
30593;SDS011;33199;47.590;8.300;2023-03-19T15:23:19;1.42;;;1.33;;
30593;SDS011;33199;47.590;8.300;2023-03-19T15:28:21;1.27;;;1.27;;
30593;SDS011;33199;47.590;8.300;2023-03-19T15:31:02;1.90;;;1.33;;
30593;SDS011;33199;47.590;8.300;2023-03-19T15:33:33;1.13;;;1.13;;
30593;SDS011;33199;47.590;8.300;2023-03-19T15:36:08;1.48;;;1.17;;
30593;SDS011;33199;47.590;8.300;2023-03-19T15:38:38;1.83;;;1.25;;
30593;SDS011;33199;47.590;8.300;2023-03-19T15:41:08;1.73;;;1.25;;
30593;SDS011;33199;47.590;8.300;2023-03-19T15:43:36;1.25;;;1.15;;
30593;SDS011;33199;47.590;8.300;2023-03-19T15:46:03;1.50;;;1.30;;
30593;SDS011;33199;47.590;8.300;2023-03-19T15:51:11;2.25;;;1.20;;
30593;SDS011;33199;47.590;8.300;2023-03-19T15:53:39;2.15;;;1.23;;
30593;SDS011;33199;47.590;8.300;2023-03-19T15:56:05;1.30;;;1.20;;
30593;SDS011;33199;47.590;8.300;2023-03-19T15:58:36;1.67;;;1.45;;
30593;SDS011;33199;47.590;8.300;2023-03-19T16:01:05;3.55;;;1.30;;
30593;SDS011;33199;47.590;8.300;2023-03-19T16:03:38;2.08;;;1.48;;
30593;SDS011;33199;47.590;8.300;2023-03-19T16:06:11;1.42;;;1.33;;
30593;SDS011;33199;47.590;8.300;2023-03-19T16:08:46;1.48;;;1.23;;
30593;SDS011;33199;47.590;8.300;2023-03-19T16:11:21;1.00;;;1.00;;
30593;SDS011;33199;47.590;8.300;2023-03-19T16:13:59;1.63;;;1.33;;
30593;SDS011;33199;47.590;8.300;2023-03-19T16:16:27;1.42;;;1.33;;
30593;SDS011;33199;47.590;8.300;2023-03-19T16:18:56;1.45;;;1.35;;
30593;SDS011;33199;47.590;8.300;2023-03-19T16:21:26;1.45;;;1.10;;
30593;SDS011;33199;47.590;8.300;2023-03-19T16:26:49;1.67;;;0.93;;
30593;SDS011;33199;47.590;8.300;2023-03-19T16:29:16;1.50;;;1.40;;
30593;SDS011;33199;47.590;8.300;2023-03-19T16:31:52;1.33;;;1.23;;
30593;SDS011;33199;47.590;8.300;2023-03-19T16:34:28;1.00;;;1.00;;
30593;SDS011;33199;47.590;8.300;2023-03-19T16:36:54;1.35;;;1.23;;
30593;SDS011;33199;47.590;8.300;2023-03-19T16:44:54;1.30;;;1.10;;
30593;SDS011;33199;47.590;8.300;2023-03-19T16:47:20;1.30;;;1.15;;
30593;SDS011;33199;47.590;8.300;2023-03-19T16:49:46;0.90;;;0.90;;
30593;SDS011;33199;47.590;8.300;2023-03-19T16:52:13;1.20;;;1.20;;
30593;SDS011;33199;47.590;8.300;2023-03-19T16:54:42;1.13;;;1.10;;
30593;SDS011;33199;47.590;8.300;2023-03-19T16:57:11;1.23;;;1.13;;
30593;SDS011;33199;47.590;8.300;2023-03-19T16:59:39;1.20;;;1.02;;
30593;SDS011;33199;47.590;8.300;2023-03-19T17:02:12;1.50;;;1.25;;
30593;SDS011;33199;47.590;8.300;2023-03-19T17:04:40;1.10;;;1.10;;
30593;SDS011;33199;47.590;8.300;2023-03-19T17:07:06;1.73;;;1.02;;
30593;SDS011;33199;47.590;8.300;2023-03-19T17:09:32;1.20;;;1.08;;
30593;SDS011;33199;47.590;8.300;2023-03-19T17:11:58;1.02;;;1.02;;
30593;SDS011;33199;47.590;8.300;2023-03-19T17:14:25;1.42;;;1.10;;